sensor_id;sensor_type;location;lat;lon;timestamp;temperature;humidity
6948;DHT22;3513;47.664;9.162;2023-02-14T00:01:10;1.80;99.90
6948;DHT22;3513;47.664;9.162;2023-02-14T00:06:11;1.80;99.90
6948;DHT22;3513;47.664;9.162;2023-02-14T00:08:37;1.50;99.90
6948;DHT22;3513;47.664;9.162;2023-02-14T00:13:31;1.80;99.90
6948;DHT22;3513;47.664;9.162;2023-02-14T00:15:57;1.80;99.90
6948;DHT22;3513;47.664;9.162;2023-02-14T00:18:22;1.90;99.90
6948;DHT22;3513;47.664;9.162;2023-02-14T00:23:34;1.80;99.90
6948;DHT22;3513;47.664;9.162;2023-02-14T00:30:51;1.90;99.90
6948;DHT22;3513;47.664;9.162;2023-02-14T00:33:17;2.00;99.90
6948;DHT22;3513;47.664;9.162;2023-02-14T00:35:42;2.00;99.90
6948;DHT22;3513;47.664;9.162;2023-02-14T00:38:17;2.00;99.90
6948;DHT22;3513;47.664;9.162;2023-02-14T00:40:43;1.80;99.90
6948;DHT22;3513;47.664;9.162;2023-02-14T00:43:08;1.90;99.90
6948;DHT22;3513;47.664;9.162;2023-02-14T00:45:34;1.90;99.90
6948;DHT22;3513;47.664;9.162;2023-02-14T00:50:25;1.80;99.90
6948;DHT22;3513;47.664;9.162;2023-02-14T01:02:35;2.00;99.90
6948;DHT22;3513;47.664;9.162;2023-02-14T01:07:26;1.70;99.90
6948;DHT22;3513;47.664;9.162;2023-02-14T01:09:52;1.90;99.90
6948;DHT22;3513;47.664;9.162;2023-02-14T01:12:18;1.90;99.90
6948;DHT22;3513;47.664;9.162;2023-02-14T01:14:43;1.80;99.90
6948;DHT22;3513;47.664;9.162;2023-02-14T01:24:27;1.80;99.90
6948;DHT22;3513;47.664;9.162;2023-02-14T01:26:52;1.80;99.90
6948;DHT22;3513;47.664;9.162;2023-02-14T01:29:18;1.90;99.90
6948;DHT22;3513;47.664;9.162;2023-02-14T01:34:12;1.90;99.90
6948;DHT22;3513;47.664;9.162;2023-02-14T01:36:38;1.80;99.90
6948;DHT22;3513;47.664;9.162;2023-02-14T01:39:07;1.90;99.90
6948;DHT22;3513;47.664;9.162;2023-02-14T01:41:36;2.00;99.90
6948;DHT22;3513;47.664;9.162;2023-02-14T01:46:41;1.90;99.90
6948;DHT22;3513;47.664;9.162;2023-02-14T01:51:48;1.90;99.90
6948;DHT22;3513;47.664;9.162;2023-02-14T01:54:16;1.80;99.90
6948;DHT22;3513;47.664;9.162;2023-02-14T01:56:45;1.70;99.90
6948;DHT22;3513;47.664;9.162;2023-02-14T01:59:15;1.70;99.90
6948;DHT22;3513;47.664;9.162;2023-02-14T02:01:44;1.70;99.90
6948;DHT22;3513;47.664;9.162;2023-02-14T02:04:21;1.60;99.90
6948;DHT22;3513;47.664;9.162;2023-02-14T02:06:54;1.90;99.90
6948;DHT22;3513;47.664;9.162;2023-02-14T02:11:47;1.60;99.90
6948;DHT22;3513;47.664;9.162;2023-02-14T02:14:16;1.60;99.90
6948;DHT22;3513;47.664;9.162;2023-02-14T02:34:07;1.80;99.90
6948;DHT22;3513;47.664;9.162;2023-02-14T02:36:42;1.80;99.90
6948;DHT22;3513;47.664;9.162;2023-02-14T02:42:03;1.80;99.90
6948;DHT22;3513;47.664;9.162;2023-02-14T02:52:47;1.70;99.90
6948;DHT22;3513;47.664;9.162;2023-02-14T02:57:55;1.60;99.90
6948;DHT22;3513;47.664;9.162;2023-02-14T03:00:23;1.70;99.90
6948;DHT22;3513;47.664;9.162;2023-02-14T03:02:51;2.00;99.90
6948;DHT22;3513;47.664;9.162;2023-02-14T03:05:39;1.70;99.90
6948;DHT22;3513;47.664;9.162;2023-02-14T03:08:05;1.70;99.90
6948;DHT22;3513;47.664;9.162;2023-02-14T03:10:35;1.70;99.90
6948;DHT22;3513;47.664;9.162;2023-02-14T03:13:32;1.90;99.90
6948;DHT22;3513;47.664;9.162;2023-02-14T03:27:26;2.00;99.90
6948;DHT22;3513;47.664;9.162;2023-02-14T03:38:13;1.80;99.90
6948;DHT22;3513;47.664;9.162;2023-02-14T03:40:58;1.70;99.90
6948;DHT22;3513;47.664;9.162;2023-02-14T03:43:29;1.60;99.90
6948;DHT22;3513;47.664;9.162;2023-02-14T03:46:10;1.60;99.90
6948;DHT22;3513;47.664;9.162;2023-02-14T03:48:38;1.60;99.90
6948;DHT22;3513;47.664;9.162;2023-02-14T03:51:07;1.60;99.90
6948;DHT22;3513;47.664;9.162;2023-02-14T03:53:37;1.70;99.90
6948;DHT22;3513;47.664;9.162;2023-02-14T03:58:46;1.70;99.90
6948;DHT22;3513;47.664;9.162;2023-02-14T04:01:35;1.70;99.90
6948;DHT22;3513;47.664;9.162;2023-02-14T04:04:04;1.70;99.90
6948;DHT22;3513;47.664;9.162;2023-02-14T04:08:57;1.50;99.90
6948;DHT22;3513;47.664;9.162;2023-02-14T04:11:23;1.50;99.90
6948;DHT22;3513;47.664;9.162;2023-02-14T04:16:15;1.60;99.90
6948;DHT22;3513;47.664;9.162;2023-02-14T04:18:40;1.70;99.90
6948;DHT22;3513;47.664;9.162;2023-02-14T04:21:24;1.70;99.90
6948;DHT22;3513;47.664;9.162;2023-02-14T04:26:16;1.70;99.90
6948;DHT22;3513;47.664;9.162;2023-02-14T04:28:41;1.90;99.90
6948;DHT22;3513;47.664;9.162;2023-02-14T04:33:34;1.70;99.90
6948;DHT22;3513;47.664;9.162;2023-02-14T04:36:00;1.70;99.90
6948;DHT22;3513;47.664;9.162;2023-02-14T04:38:25;1.70;99.90
6948;DHT22;3513;47.664;9.162;2023-02-14T04:40:51;1.60;99.90
6948;DHT22;3513;47.664;9.162;2023-02-14T04:43:18;1.60;99.90
6948;DHT22;3513;47.664;9.162;2023-02-14T04:45:44;1.60;99.90
6948;DHT22;3513;47.664;9.162;2023-02-14T04:48:09;1.40;99.90
6948;DHT22;3513;47.664;9.162;2023-02-14T04:53:01;1.50;99.90
6948;DHT22;3513;47.664;9.162;2023-02-14T04:57:52;1.70;99.90
6948;DHT22;3513;47.664;9.162;2023-02-14T05:00:18;1.70;99.90
6948;DHT22;3513;47.664;9.162;2023-02-14T05:10:03;1.70;99.90
6948;DHT22;3513;47.664;9.162;2023-02-14T05:12:29;1.90;99.90
6948;DHT22;3513;47.664;9.162;2023-02-14T05:17:22;1.70;99.90
6948;DHT22;3513;47.664;9.162;2023-02-14T05:31:58;1.60;99.90
6948;DHT22;3513;47.664;9.162;2023-02-14T05:34:23;1.30;99.90
6948;DHT22;3513;47.664;9.162;2023-02-14T05:46:33;1.40;99.90
6948;DHT22;3513;47.664;9.162;2023-02-14T05:48:59;1.60;99.90
6948;DHT22;3513;47.664;9.162;2023-02-14T05:51:24;1.30;99.90
6948;DHT22;3513;47.664;9.162;2023-02-14T05:56:16;1.30;99.90
6948;DHT22;3513;47.664;9.162;2023-02-14T06:15:44;1.50;99.90
6948;DHT22;3513;47.664;9.162;2023-02-14T06:23:01;2.00;99.90
6948;DHT22;3513;47.664;9.162;2023-02-14T06:27:57;1.80;99.90
6948;DHT22;3513;47.664;9.162;2023-02-14T06:30:23;1.80;99.90
6948;DHT22;3513;47.664;9.162;2023-02-14T06:32:50;1.80;99.90
6948;DHT22;3513;47.664;9.162;2023-02-14T06:35:15;2.00;99.90
6948;DHT22;3513;47.664;9.162;2023-02-14T06:40:10;1.80;99.90
6948;DHT22;3513;47.664;9.162;2023-02-14T06:42:36;1.90;99.90
6948;DHT22;3513;47.664;9.162;2023-02-14T06:45:03;2.00;99.90
6948;DHT22;3513;47.664;9.162;2023-02-14T06:49:55;2.00;99.90
6948;DHT22;3513;47.664;9.162;2023-02-14T06:52:20;1.90;99.90
6948;DHT22;3513;47.664;9.162;2023-02-14T06:54:46;2.00;99.90
6948;DHT22;3513;47.664;9.162;2023-02-14T06:57:12;2.00;99.90
6948;DHT22;3513;47.664;9.162;2023-02-14T06:59:37;2.00;99.90
6948;DHT22;3513;47.664;9.162;2023-02-14T07:06:56;2.10;99.90
6948;DHT22;3513;47.664;9.162;2023-02-14T07:09:21;1.90;99.90
6948;DHT22;3513;47.664;9.162;2023-02-14T07:11:47;2.20;99.90
6948;DHT22;3513;47.664;9.162;2023-02-14T07:14:13;2.30;99.90
6948;DHT22;3513;47.664;9.162;2023-02-14T07:16:39;2.30;99.90
6948;DHT22;3513;47.664;9.162;2023-02-14T07:19:05;2.40;99.90
6948;DHT22;3513;47.664;9.162;2023-02-14T07:21:30;2.40;99.90
6948;DHT22;3513;47.664;9.162;2023-02-14T07:23:56;2.40;99.90
6948;DHT22;3513;47.664;9.162;2023-02-14T07:26:21;2.40;99.90
6948;DHT22;3513;47.664;9.162;2023-02-14T07:28:47;2.30;99.90
6948;DHT22;3513;47.664;9.162;2023-02-14T07:31:16;2.20;99.90
6948;DHT22;3513;47.664;9.162;2023-02-14T07:53:11;2.30;99.90
6948;DHT22;3513;47.664;9.162;2023-02-14T07:58:03;2.30;99.90
6948;DHT22;3513;47.664;9.162;2023-02-14T08:05:22;2.40;99.90
6948;DHT22;3513;47.664;9.162;2023-02-14T08:15:31;2.50;99.90
6948;DHT22;3513;47.664;9.162;2023-02-14T08:18:16;2.30;99.90
6948;DHT22;3513;47.664;9.162;2023-02-14T08:25:34;2.40;99.90
6948;DHT22;3513;47.664;9.162;2023-02-14T08:28:01;2.40;99.90
6948;DHT22;3513;47.664;9.162;2023-02-14T08:30:27;2.30;99.90
6948;DHT22;3513;47.664;9.162;2023-02-14T08:35:19;2.50;99.90
6948;DHT22;3513;47.664;9.162;2023-02-14T08:37:44;2.50;99.90
6948;DHT22;3513;47.664;9.162;2023-02-14T08:40:10;2.40;99.90
6948;DHT22;3513;47.664;9.162;2023-02-14T08:42:39;2.40;99.90
6948;DHT22;3513;47.664;9.162;2023-02-14T08:45:05;2.50;99.90
6948;DHT22;3513;47.664;9.162;2023-02-14T08:47:31;2.50;99.90
6948;DHT22;3513;47.664;9.162;2023-02-14T08:50:07;2.40;99.90
6948;DHT22;3513;47.664;9.162;2023-02-14T08:52:33;2.60;99.90
6948;DHT22;3513;47.664;9.162;2023-02-14T08:57:26;2.60;99.90
6948;DHT22;3513;47.664;9.162;2023-02-14T08:59:52;2.60;99.90
6948;DHT22;3513;47.664;9.162;2023-02-14T09:02:18;2.60;99.90
6948;DHT22;3513;47.664;9.162;2023-02-14T09:04:43;2.80;99.90
6948;DHT22;3513;47.664;9.162;2023-02-14T09:07:11;2.70;99.90
6948;DHT22;3513;47.664;9.162;2023-02-14T09:09:36;2.70;99.90
6948;DHT22;3513;47.664;9.162;2023-02-14T09:12:04;2.70;99.90
6948;DHT22;3513;47.664;9.162;2023-02-14T09:14:34;2.80;99.90
6948;DHT22;3513;47.664;9.162;2023-02-14T09:17:00;2.80;99.90
6948;DHT22;3513;47.664;9.162;2023-02-14T09:19:32;2.80;99.90
6948;DHT22;3513;47.664;9.162;2023-02-14T09:21:58;2.70;99.90
6948;DHT22;3513;47.664;9.162;2023-02-14T09:26:52;2.80;99.90
6948;DHT22;3513;47.664;9.162;2023-02-14T09:34:10;3.00;99.90
6948;DHT22;3513;47.664;9.162;2023-02-14T09:36:35;3.00;99.90
6948;DHT22;3513;47.664;9.162;2023-02-14T09:39:19;3.30;99.90
6948;DHT22;3513;47.664;9.162;2023-02-14T09:42:14;3.10;99.90
6948;DHT22;3513;47.664;9.162;2023-02-14T09:44:57;3.10;99.90
6948;DHT22;3513;47.664;9.162;2023-02-14T09:50:29;3.30;99.90
6948;DHT22;3513;47.664;9.162;2023-02-14T09:53:04;3.30;99.90
6948;DHT22;3513;47.664;9.162;2023-02-14T09:56:26;3.40;99.90
6948;DHT22;3513;47.664;9.162;2023-02-14T10:09:15;3.40;99.90
6948;DHT22;3513;47.664;9.162;2023-02-14T10:11:45;3.40;99.90
6948;DHT22;3513;47.664;9.162;2023-02-14T10:14:16;3.30;99.90
6948;DHT22;3513;47.664;9.162;2023-02-14T10:16:51;3.40;99.90
6948;DHT22;3513;47.664;9.162;2023-02-14T10:19:23;3.50;99.90
6948;DHT22;3513;47.664;9.162;2023-02-14T10:21:54;3.50;99.90
6948;DHT22;3513;47.664;9.162;2023-02-14T10:24:31;3.50;99.90
6948;DHT22;3513;47.664;9.162;2023-02-14T10:32:18;3.60;99.90
6948;DHT22;3513;47.664;9.162;2023-02-14T10:34:50;3.50;99.90
6948;DHT22;3513;47.664;9.162;2023-02-14T10:40:17;3.60;99.90
6948;DHT22;3513;47.664;9.162;2023-02-14T10:51:45;3.30;99.90
6948;DHT22;3513;47.664;9.162;2023-02-14T10:54:25;3.40;99.90
6948;DHT22;3513;47.664;9.162;2023-02-14T11:01:55;3.60;99.90
6948;DHT22;3513;47.664;9.162;2023-02-14T11:04:23;3.70;99.90
6948;DHT22;3513;47.664;9.162;2023-02-14T11:09:17;3.90;99.90
6948;DHT22;3513;47.664;9.162;2023-02-14T11:11:50;3.90;99.90
6948;DHT22;3513;47.664;9.162;2023-02-14T11:16:49;3.60;99.90
6948;DHT22;3513;47.664;9.162;2023-02-14T11:19:27;3.70;99.90
6948;DHT22;3513;47.664;9.162;2023-02-14T11:21:56;3.80;99.90
6948;DHT22;3513;47.664;9.162;2023-02-14T11:24:26;3.80;99.90
6948;DHT22;3513;47.664;9.162;2023-02-14T11:27:16;3.80;99.90
6948;DHT22;3513;47.664;9.162;2023-02-14T11:29:43;4.00;99.90
6948;DHT22;3513;47.664;9.162;2023-02-14T11:32:20;4.20;99.90
6948;DHT22;3513;47.664;9.162;2023-02-14T11:39:51;4.30;99.90
6948;DHT22;3513;47.664;9.162;2023-02-14T11:42:36;4.40;99.90
6948;DHT22;3513;47.664;9.162;2023-02-14T11:45:04;4.40;99.90
6948;DHT22;3513;47.664;9.162;2023-02-14T11:47:32;4.50;99.90
6948;DHT22;3513;47.664;9.162;2023-02-14T11:50:04;4.40;99.90
6948;DHT22;3513;47.664;9.162;2023-02-14T11:52:49;4.60;99.90
6948;DHT22;3513;47.664;9.162;2023-02-14T11:55:26;4.60;99.90
6948;DHT22;3513;47.664;9.162;2023-02-14T11:57:52;4.70;99.90
6948;DHT22;3513;47.664;9.162;2023-02-14T12:00:19;4.50;99.90
6948;DHT22;3513;47.664;9.162;2023-02-14T12:02:48;4.60;99.90
6948;DHT22;3513;47.664;9.162;2023-02-14T12:07:50;4.60;99.90
6948;DHT22;3513;47.664;9.162;2023-02-14T12:10:22;4.60;99.90
6948;DHT22;3513;47.664;9.162;2023-02-14T12:17:55;4.60;99.70
6948;DHT22;3513;47.664;9.162;2023-02-14T12:20:41;4.30;99.90
6948;DHT22;3513;47.664;9.162;2023-02-14T12:23:16;4.20;99.90
6948;DHT22;3513;47.664;9.162;2023-02-14T12:25:57;4.10;99.90
6948;DHT22;3513;47.664;9.162;2023-02-14T12:28:30;4.10;99.90
6948;DHT22;3513;47.664;9.162;2023-02-14T12:30:59;3.80;99.90
6948;DHT22;3513;47.664;9.162;2023-02-14T12:33:24;3.80;99.90
6948;DHT22;3513;47.664;9.162;2023-02-14T12:36:03;3.70;99.90
6948;DHT22;3513;47.664;9.162;2023-02-14T12:38:40;4.10;99.90
6948;DHT22;3513;47.664;9.162;2023-02-14T12:54:53;4.40;99.90
6948;DHT22;3513;47.664;9.162;2023-02-14T13:00:21;4.70;99.90
6948;DHT22;3513;47.664;9.162;2023-02-14T13:03:20;4.80;99.90
6948;DHT22;3513;47.664;9.162;2023-02-14T13:06:42;4.70;99.90
6948;DHT22;3513;47.664;9.162;2023-02-14T13:11:35;4.90;99.60
6948;DHT22;3513;47.664;9.162;2023-02-14T13:14:21;4.90;99.50
6948;DHT22;3513;47.664;9.162;2023-02-14T13:17:14;4.70;99.40
6948;DHT22;3513;47.664;9.162;2023-02-14T13:22:28;5.10;99.90
6948;DHT22;3513;47.664;9.162;2023-02-14T13:24:58;4.80;99.90
6948;DHT22;3513;47.664;9.162;2023-02-14T13:27:27;4.70;99.20
6948;DHT22;3513;47.664;9.162;2023-02-14T13:30:04;4.80;99.90
6948;DHT22;3513;47.664;9.162;2023-02-14T13:32:40;4.90;99.90
6948;DHT22;3513;47.664;9.162;2023-02-14T13:35:06;4.90;99.30
6948;DHT22;3513;47.664;9.162;2023-02-14T13:37:33;5.00;99.30
6948;DHT22;3513;47.664;9.162;2023-02-14T13:40:14;4.80;99.70
6948;DHT22;3513;47.664;9.162;2023-02-14T13:48:14;5.00;99.90
6948;DHT22;3513;47.664;9.162;2023-02-14T13:58:36;4.90;99.50
6948;DHT22;3513;47.664;9.162;2023-02-14T14:03:57;4.70;99.90
6948;DHT22;3513;47.664;9.162;2023-02-14T14:08:52;4.70;99.90
6948;DHT22;3513;47.664;9.162;2023-02-14T14:16:56;4.70;99.90
6948;DHT22;3513;47.664;9.162;2023-02-14T14:22:09;4.70;99.90
6948;DHT22;3513;47.664;9.162;2023-02-14T14:24:37;4.70;99.90
6948;DHT22;3513;47.664;9.162;2023-02-14T14:27:20;4.90;99.90
6948;DHT22;3513;47.664;9.162;2023-02-14T14:32:26;5.00;99.90
6948;DHT22;3513;47.664;9.162;2023-02-14T14:35:17;4.90;99.90
6948;DHT22;3513;47.664;9.162;2023-02-14T14:37:54;5.10;99.90
6948;DHT22;3513;47.664;9.162;2023-02-14T14:40:27;5.20;99.90
6948;DHT22;3513;47.664;9.162;2023-02-14T14:42:58;5.20;99.90
6948;DHT22;3513;47.664;9.162;2023-02-14T14:45:27;5.20;99.90
6948;DHT22;3513;47.664;9.162;2023-02-14T14:47:55;5.40;99.20
6948;DHT22;3513;47.664;9.162;2023-02-14T14:52:51;5.60;97.50
6948;DHT22;3513;47.664;9.162;2023-02-14T14:55:26;5.30;97.60
6948;DHT22;3513;47.664;9.162;2023-02-14T14:58:00;5.20;98.70
6948;DHT22;3513;47.664;9.162;2023-02-14T15:00:33;5.20;98.90
6948;DHT22;3513;47.664;9.162;2023-02-14T15:10:28;4.80;99.90
6948;DHT22;3513;47.664;9.162;2023-02-14T15:12:57;4.80;99.90
6948;DHT22;3513;47.664;9.162;2023-02-14T15:15:47;4.90;99.90
6948;DHT22;3513;47.664;9.162;2023-02-14T15:18:15;4.90;99.90
6948;DHT22;3513;47.664;9.162;2023-02-14T15:20:41;4.90;99.30
6948;DHT22;3513;47.664;9.162;2023-02-14T15:23:18;4.80;99.80
6948;DHT22;3513;47.664;9.162;2023-02-14T15:25:46;4.70;99.90
6948;DHT22;3513;47.664;9.162;2023-02-14T15:28:31;4.80;99.90
6948;DHT22;3513;47.664;9.162;2023-02-14T15:31:03;5.00;99.90
6948;DHT22;3513;47.664;9.162;2023-02-14T15:33:30;4.90;99.90
6948;DHT22;3513;47.664;9.162;2023-02-14T15:36:09;4.80;99.90
6948;DHT22;3513;47.664;9.162;2023-02-14T15:38:41;4.90;99.90
6948;DHT22;3513;47.664;9.162;2023-02-14T15:43:36;4.90;99.90
6948;DHT22;3513;47.664;9.162;2023-02-14T15:51:18;4.80;99.90
6948;DHT22;3513;47.664;9.162;2023-02-14T15:53:52;4.80;99.90
6948;DHT22;3513;47.664;9.162;2023-02-14T16:03:39;4.40;99.90
6948;DHT22;3513;47.664;9.162;2023-02-14T16:06:29;4.40;99.90
6948;DHT22;3513;47.664;9.162;2023-02-14T16:11:32;4.40;99.90
6948;DHT22;3513;47.664;9.162;2023-02-14T16:14:19;4.30;99.90
6948;DHT22;3513;47.664;9.162;2023-02-14T16:19:37;4.40;99.90
6948;DHT22;3513;47.664;9.162;2023-02-14T16:22:03;4.30;99.90
6948;DHT22;3513;47.664;9.162;2023-02-14T16:24:29;4.20;99.90
6948;DHT22;3513;47.664;9.162;2023-02-14T16:29:21;4.10;99.90
6948;DHT22;3513;47.664;9.162;2023-02-14T16:31:54;4.00;99.90
6948;DHT22;3513;47.664;9.162;2023-02-14T16:34:21;4.00;99.90
6948;DHT22;3513;47.664;9.162;2023-02-14T16:36:47;3.90;99.90
6948;DHT22;3513;47.664;9.162;2023-02-14T16:39:18;3.70;99.90
6948;DHT22;3513;47.664;9.162;2023-02-14T16:41:46;3.70;99.90
6948;DHT22;3513;47.664;9.162;2023-02-14T16:44:19;3.60;99.90
6948;DHT22;3513;47.664;9.162;2023-02-14T16:46:45;3.80;99.90
6948;DHT22;3513;47.664;9.162;2023-02-14T16:49:12;3.70;99.90
6948;DHT22;3513;47.664;9.162;2023-02-14T16:51:41;3.60;99.90
6948;DHT22;3513;47.664;9.162;2023-02-14T16:54:14;3.70;99.90
6948;DHT22;3513;47.664;9.162;2023-02-14T16:56:55;3.60;99.90
6948;DHT22;3513;47.664;9.162;2023-02-14T16:59:22;3.60;99.90
6948;DHT22;3513;47.664;9.162;2023-02-14T17:01:48;6.70;99.90
6948;DHT22;3513;47.664;9.162;2023-02-14T17:04:14;3.50;99.90
6948;DHT22;3513;47.664;9.162;2023-02-14T17:06:42;3.60;99.90
6948;DHT22;3513;47.664;9.162;2023-02-14T17:09:13;3.60;99.90
6948;DHT22;3513;47.664;9.162;2023-02-14T17:11:42;3.60;99.90
6948;DHT22;3513;47.664;9.162;2023-02-14T17:14:11;3.60;99.90
6948;DHT22;3513;47.664;9.162;2023-02-14T17:16:39;3.60;99.90
6948;DHT22;3513;47.664;9.162;2023-02-14T17:19:05;3.50;99.90
6948;DHT22;3513;47.664;9.162;2023-02-14T17:21:31;3.50;99.90
6948;DHT22;3513;47.664;9.162;2023-02-14T17:23:58;3.50;99.90
6948;DHT22;3513;47.664;9.162;2023-02-14T17:26:24;3.40;99.90
6948;DHT22;3513;47.664;9.162;2023-02-14T17:28:50;3.50;99.90
6948;DHT22;3513;47.664;9.162;2023-02-14T17:31:15;3.50;99.90
6948;DHT22;3513;47.664;9.162;2023-02-14T17:33:41;3.50;99.90
6948;DHT22;3513;47.664;9.162;2023-02-14T17:36:11;3.50;99.90
6948;DHT22;3513;47.664;9.162;2023-02-14T17:38:37;3.50;99.90
6948;DHT22;3513;47.664;9.162;2023-02-14T17:43:40;3.50;99.90
6948;DHT22;3513;47.664;9.162;2023-02-14T17:46:06;3.40;99.90
6948;DHT22;3513;47.664;9.162;2023-02-14T17:48:32;3.40;99.90
6948;DHT22;3513;47.664;9.162;2023-02-14T17:51:03;3.30;99.90
6948;DHT22;3513;47.664;9.162;2023-02-14T17:53:32;5.90;99.90
6948;DHT22;3513;47.664;9.162;2023-02-14T17:56:06;3.30;99.90
6948;DHT22;3513;47.664;9.162;2023-02-14T17:58:33;3.10;99.90
6948;DHT22;3513;47.664;9.162;2023-02-14T18:01:02;3.10;99.90
6948;DHT22;3513;47.664;9.162;2023-02-14T18:03:28;3.30;99.90
6948;DHT22;3513;47.664;9.162;2023-02-14T18:05:56;3.20;99.90
6948;DHT22;3513;47.664;9.162;2023-02-14T18:08:25;3.10;99.90
6948;DHT22;3513;47.664;9.162;2023-02-14T18:10:51;3.10;99.90
6948;DHT22;3513;47.664;9.162;2023-02-14T18:13:16;3.10;99.90
6948;DHT22;3513;47.664;9.162;2023-02-14T18:15:42;4.10;99.90
6948;DHT22;3513;47.664;9.162;2023-02-14T18:18:09;3.10;99.90
6948;DHT22;3513;47.664;9.162;2023-02-14T18:20:35;2.90;99.90
6948;DHT22;3513;47.664;9.162;2023-02-14T18:25:35;2.90;99.90
6948;DHT22;3513;47.664;9.162;2023-02-14T18:28:01;2.80;99.90
6948;DHT22;3513;47.664;9.162;2023-02-14T18:30:27;2.90;99.90
6948;DHT22;3513;47.664;9.162;2023-02-14T18:32:55;2.90;99.90
6948;DHT22;3513;47.664;9.162;2023-02-14T18:35:20;2.90;99.90
6948;DHT22;3513;47.664;9.162;2023-02-14T18:37:46;3.50;99.90
6948;DHT22;3513;47.664;9.162;2023-02-14T18:40:12;2.80;99.90
6948;DHT22;3513;47.664;9.162;2023-02-14T18:42:44;2.90;99.90
6948;DHT22;3513;47.664;9.162;2023-02-14T18:45:10;2.70;99.90
6948;DHT22;3513;47.664;9.162;2023-02-14T18:47:35;2.80;99.90
6948;DHT22;3513;47.664;9.162;2023-02-14T18:50:04;2.90;99.90
6948;DHT22;3513;47.664;9.162;2023-02-14T18:52:30;2.80;99.90
6948;DHT22;3513;47.664;9.162;2023-02-14T18:54:58;2.80;99.90
6948;DHT22;3513;47.664;9.162;2023-02-14T18:57:24;2.90;99.90
6948;DHT22;3513;47.664;9.162;2023-02-14T18:59:49;2.60;99.90
6948;DHT22;3513;47.664;9.162;2023-02-14T19:02:15;2.80;99.90
6948;DHT22;3513;47.664;9.162;2023-02-14T19:04:41;2.70;99.90
6948;DHT22;3513;47.664;9.162;2023-02-14T19:07:07;2.70;99.90
6948;DHT22;3513;47.664;9.162;2023-02-14T19:09:36;2.70;99.90
6948;DHT22;3513;47.664;9.162;2023-02-14T19:12:10;2.70;99.90
6948;DHT22;3513;47.664;9.162;2023-02-14T19:14:36;4.30;99.90
6948;DHT22;3513;47.664;9.162;2023-02-14T19:17:03;5.00;99.90
6948;DHT22;3513;47.664;9.162;2023-02-14T19:19:29;2.70;99.90
6948;DHT22;3513;47.664;9.162;2023-02-14T19:21:57;2.60;99.90
6948;DHT22;3513;47.664;9.162;2023-02-14T19:24:24;2.70;99.90
6948;DHT22;3513;47.664;9.162;2023-02-14T19:26:51;2.80;99.90
6948;DHT22;3513;47.664;9.162;2023-02-14T19:29:18;2.70;99.90
6948;DHT22;3513;47.664;9.162;2023-02-14T19:31:51;2.70;99.90
6948;DHT22;3513;47.664;9.162;2023-02-14T19:34:28;2.70;99.90
6948;DHT22;3513;47.664;9.162;2023-02-14T19:36:58;2.70;99.90
6948;DHT22;3513;47.664;9.162;2023-02-14T19:39:26;2.70;99.90
6948;DHT22;3513;47.664;9.162;2023-02-14T19:41:54;2.70;99.90
6948;DHT22;3513;47.664;9.162;2023-02-14T19:44:20;2.80;99.90
6948;DHT22;3513;47.664;9.162;2023-02-14T19:46:46;2.70;99.90
6948;DHT22;3513;47.664;9.162;2023-02-14T19:49:19;2.70;99.90
6948;DHT22;3513;47.664;9.162;2023-02-14T19:51:45;2.70;99.90
6948;DHT22;3513;47.664;9.162;2023-02-14T19:54:15;3.10;99.90
6948;DHT22;3513;47.664;9.162;2023-02-14T19:56:44;2.70;99.90
6948;DHT22;3513;47.664;9.162;2023-02-14T19:59:11;2.70;99.90
6948;DHT22;3513;47.664;9.162;2023-02-14T20:01:40;2.60;99.90
6948;DHT22;3513;47.664;9.162;2023-02-14T20:04:09;4.10;99.90
6948;DHT22;3513;47.664;9.162;2023-02-14T20:06:40;2.50;99.90
6948;DHT22;3513;47.664;9.162;2023-02-14T20:09:06;2.50;99.90
6948;DHT22;3513;47.664;9.162;2023-02-14T20:11:39;3.40;99.90
6948;DHT22;3513;47.664;9.162;2023-02-14T20:14:11;2.50;99.90
6948;DHT22;3513;47.664;9.162;2023-02-14T20:16:37;2.50;99.90
6948;DHT22;3513;47.664;9.162;2023-02-14T20:19:04;2.50;99.90
6948;DHT22;3513;47.664;9.162;2023-02-14T20:21:30;2.50;99.90
6948;DHT22;3513;47.664;9.162;2023-02-14T20:23:58;2.40;99.90
6948;DHT22;3513;47.664;9.162;2023-02-14T20:26:26;2.40;99.90
6948;DHT22;3513;47.664;9.162;2023-02-14T20:28:52;2.30;99.90
6948;DHT22;3513;47.664;9.162;2023-02-14T20:31:18;2.30;99.90
6948;DHT22;3513;47.664;9.162;2023-02-14T20:33:45;2.40;99.90
6948;DHT22;3513;47.664;9.162;2023-02-14T20:38:38;2.30;99.90
6948;DHT22;3513;47.664;9.162;2023-02-14T20:41:08;2.30;99.90
6948;DHT22;3513;47.664;9.162;2023-02-14T20:43:34;2.30;99.90
6948;DHT22;3513;47.664;9.162;2023-02-14T20:46:00;2.20;99.90
6948;DHT22;3513;47.664;9.162;2023-02-14T20:48:27;2.20;99.90
6948;DHT22;3513;47.664;9.162;2023-02-14T20:50:53;2.20;99.90
6948;DHT22;3513;47.664;9.162;2023-02-14T20:53:18;2.10;99.90
6948;DHT22;3513;47.664;9.162;2023-02-14T20:58:12;2.20;99.90
6948;DHT22;3513;47.664;9.162;2023-02-14T21:00:38;2.10;99.90
6948;DHT22;3513;47.664;9.162;2023-02-14T21:10:22;2.00;99.90
6948;DHT22;3513;47.664;9.162;2023-02-14T21:12:47;2.00;99.90
6948;DHT22;3513;47.664;9.162;2023-02-14T21:15:14;2.10;99.90
6948;DHT22;3513;47.664;9.162;2023-02-14T21:17:40;2.00;99.90
6948;DHT22;3513;47.664;9.162;2023-02-14T21:20:06;2.10;99.90
6948;DHT22;3513;47.664;9.162;2023-02-14T21:22:32;2.10;99.90
6948;DHT22;3513;47.664;9.162;2023-02-14T21:24:57;2.20;99.90
6948;DHT22;3513;47.664;9.162;2023-02-14T21:27:23;2.00;99.90
6948;DHT22;3513;47.664;9.162;2023-02-14T21:29:48;2.00;99.90
6948;DHT22;3513;47.664;9.162;2023-02-14T21:34:40;2.20;99.90
6948;DHT22;3513;47.664;9.162;2023-02-14T21:37:05;2.10;99.90
6948;DHT22;3513;47.664;9.162;2023-02-14T21:39:31;1.90;99.90
6948;DHT22;3513;47.664;9.162;2023-02-14T21:44:26;1.80;99.90
6948;DHT22;3513;47.664;9.162;2023-02-14T21:47:10;1.80;99.90
6948;DHT22;3513;47.664;9.162;2023-02-14T21:54:46;1.70;99.90
6948;DHT22;3513;47.664;9.162;2023-02-14T21:59:38;1.70;99.90
6948;DHT22;3513;47.664;9.162;2023-02-14T22:02:05;1.70;99.90
6948;DHT22;3513;47.664;9.162;2023-02-14T22:04:31;1.80;99.90
6948;DHT22;3513;47.664;9.162;2023-02-14T22:09:22;1.80;99.90
6948;DHT22;3513;47.664;9.162;2023-02-14T22:11:48;1.80;99.90
6948;DHT22;3513;47.664;9.162;2023-02-14T22:14:14;1.80;99.90
6948;DHT22;3513;47.664;9.162;2023-02-14T22:19:07;1.70;99.90
6948;DHT22;3513;47.664;9.162;2023-02-14T22:21:36;1.70;99.90
6948;DHT22;3513;47.664;9.162;2023-02-14T22:24:02;1.70;99.90
6948;DHT22;3513;47.664;9.162;2023-02-14T22:26:30;1.70;99.90
6948;DHT22;3513;47.664;9.162;2023-02-14T22:29:04;1.70;99.90
6948;DHT22;3513;47.664;9.162;2023-02-14T22:31:42;1.60;99.90
6948;DHT22;3513;47.664;9.162;2023-02-14T22:34:10;1.90;99.90
6948;DHT22;3513;47.664;9.162;2023-02-14T22:36:36;1.80;99.90
6948;DHT22;3513;47.664;9.162;2023-02-14T22:39:02;1.90;99.90
6948;DHT22;3513;47.664;9.162;2023-02-14T22:41:28;1.80;99.90
6948;DHT22;3513;47.664;9.162;2023-02-14T22:43:54;1.60;99.90
6948;DHT22;3513;47.664;9.162;2023-02-14T22:46:24;1.70;99.90
6948;DHT22;3513;47.664;9.162;2023-02-14T22:48:52;1.70;99.90
6948;DHT22;3513;47.664;9.162;2023-02-14T22:51:36;1.80;99.90
6948;DHT22;3513;47.664;9.162;2023-02-14T22:54:09;1.70;99.90
6948;DHT22;3513;47.664;9.162;2023-02-14T22:56:38;1.80;99.90
6948;DHT22;3513;47.664;9.162;2023-02-14T22:59:07;1.70;99.90
6948;DHT22;3513;47.664;9.162;2023-02-14T23:01:36;1.80;99.90
6948;DHT22;3513;47.664;9.162;2023-02-14T23:04:03;1.60;99.90
6948;DHT22;3513;47.664;9.162;2023-02-14T23:06:30;1.70;99.90
6948;DHT22;3513;47.664;9.162;2023-02-14T23:08:56;1.60;99.90
6948;DHT22;3513;47.664;9.162;2023-02-14T23:11:30;1.50;99.90
6948;DHT22;3513;47.664;9.162;2023-02-14T23:13:56;1.70;99.90
6948;DHT22;3513;47.664;9.162;2023-02-14T23:19:26;1.60;99.90